createdAt,value
2019-02-25T00:01:59.317Z,101652.03
2019-02-25T00:04:29.691Z,101656.75
2019-02-25T00:06:59.983Z,101653.66
2019-02-25T00:09:30.334Z,101650.84
2019-02-25T00:12:00.932Z,101651.06
2019-02-25T00:14:31.436Z,101655.09
2019-02-25T00:17:01.965Z,101647.67
2019-02-25T00:19:32.434Z,101654.27
2019-02-25T00:22:02.825Z,101659.68
2019-02-25T00:24:33.073Z,101561.88
2019-02-25T00:27:04.858Z,101661.47
2019-02-25T00:29:35.493Z,101661.80
2019-02-25T00:32:05.978Z,101653.33
2019-02-25T00:34:36.434Z,101644.94
2019-02-25T00:37:06.784Z,101645.66
2019-02-25T00:39:37.160Z,101649.91
2019-02-25T00:42:07.611Z,101648.35
2019-02-25T00:44:37.801Z,101641.50
2019-02-25T00:47:08.431Z,101638.91
2019-02-25T00:49:38.664Z,101635.01
2019-02-25T00:52:09.226Z,101634.06
2019-02-25T00:54:39.535Z,101637.61
2019-02-25T00:57:10.023Z,101637.36
2019-02-25T00:59:40.583Z,101637.83
2019-02-25T01:02:10.945Z,101633.58
2019-02-25T01:04:41.491Z,101636.44
2019-02-25T01:07:11.749Z,101637.13
2019-02-25T01:09:42.071Z,101632.08
2019-02-25T01:12:12.420Z,101632.28
2019-02-25T01:14:42.571Z,101638.91
2019-02-25T01:17:12.906Z,101639.59
2019-02-25T01:19:43.410Z,101641.97
2019-02-25T01:22:15.282Z,101641.14
2019-02-25T01:24:45.492Z,101639.59
2019-02-25T01:27:15.926Z,101641.73
2019-02-25T01:29:46.226Z,101628.27
2019-02-25T01:32:16.392Z,101641.62
2019-02-25T01:34:46.659Z,101640.89
2019-02-25T01:37:16.966Z,101629.92
2019-02-25T01:39:47.308Z,101632.42
2019-02-25T01:42:18.087Z,101620.85
2019-02-25T01:44:48.396Z,101615.20
2019-02-25T01:47:18.631Z,101609.53
2019-02-25T01:49:48.870Z,101608.20
2019-02-25T01:52:19.420Z,101607.64
2019-02-25T01:54:49.561Z,101597.98
2019-02-25T01:57:19.941Z,101600.91
2019-02-25T01:59:50.090Z,101592.89
2019-02-25T02:02:20.377Z,101591.82
2019-02-25T02:04:50.701Z,101592.91
2019-02-25T02:07:20.982Z,101593.23
2019-02-25T02:09:51.194Z,101601.75
2019-02-25T02:12:21.574Z,101599.98
2019-02-25T02:14:51.854Z,101596.80
2019-02-25T02:17:22.166Z,101595.37
2019-02-25T02:19:53.115Z,101593.02
2019-02-25T02:22:23.612Z,101607.52
2019-02-25T02:24:53.841Z,101601.86
2019-02-25T02:27:25.576Z,101602.33
2019-02-25T02:29:55.909Z,101603.52
2019-02-25T02:32:26.334Z,101605.06
2019-02-25T02:34:56.663Z,101611.66
2019-02-25T02:37:26.878Z,101608.23
2019-02-25T02:39:57.227Z,101596.91
2019-02-25T02:42:27.383Z,101505.70
2019-02-25T02:45:03.070Z,101590.53
2019-02-25T02:47:49.770Z,101595.25
2019-02-25T02:50:22.910Z,101595.01
2019-02-25T02:52:53.301Z,101590.64
2019-02-25T02:55:23.473Z,101591.11
2019-02-25T02:57:53.729Z,101596.55
2019-02-25T03:00:24.040Z,101592.77
2019-02-25T03:02:54.504Z,101597.86
2019-02-25T03:05:24.800Z,101603.05
2019-02-25T03:07:55.206Z,101605.75
2019-02-25T03:10:25.730Z,101599.87
2019-02-25T03:12:56.351Z,101595.62
2019-02-25T03:15:26.732Z,101592.87
2019-02-25T03:17:57.450Z,101593.23
2019-02-25T03:20:27.754Z,101594.31
2019-02-25T03:22:58.115Z,101599.25
2019-02-25T03:25:28.492Z,101598.31
2019-02-25T03:27:58.925Z,101596.17
2019-02-25T03:30:29.390Z,101599.44
2019-02-25T03:32:59.878Z,101600.25
2019-02-25T03:35:30.149Z,101597.77
2019-02-25T03:38:00.756Z,101604.05
2019-02-25T03:40:31.066Z,101612.67
2019-02-25T03:43:01.698Z,101609.22
2019-02-25T03:45:32.164Z,101610.63
2019-02-25T03:48:02.570Z,101613.10
2019-02-25T03:50:33.441Z,101610.61
2019-02-25T03:53:03.856Z,101605.79
2019-02-25T03:55:34.150Z,101587.38
2019-02-25T03:58:04.798Z,101607.33
2019-02-25T04:00:35.061Z,101613.47
2019-02-25T04:05:34.456Z,101610.28
2019-02-25T04:08:04.792Z,101613.34
2019-02-25T04:10:35.083Z,101613.34
2019-02-25T04:13:05.442Z,101605.44
2019-02-25T04:15:39.080Z,101523.41
2019-02-25T04:18:09.327Z,101611.83
2019-02-25T04:20:39.564Z,101606.53
2019-02-25T04:23:10.066Z,101611.59
2019-02-25T04:25:40.404Z,101613.24
2019-02-25T04:28:10.827Z,101610.64
2019-02-25T04:30:41.135Z,101607.07
2019-02-25T04:33:11.404Z,101598.93
2019-02-25T04:35:41.766Z,101593.84
2019-02-25T04:38:12.293Z,101593.92
2019-02-25T04:40:42.761Z,101596.48
2019-02-25T04:43:13.080Z,101590.36
2019-02-25T04:45:43.395Z,101588.88
2019-02-25T04:48:13.588Z,101594.53
2019-02-25T04:50:43.921Z,101592.75
2019-02-25T04:53:14.277Z,101607.47
2019-02-25T04:55:44.531Z,101607.09
2019-02-25T04:58:15.317Z,101601.91
2019-02-25T05:00:45.725Z,101603.32
2019-02-25T05:03:16.012Z,101593.77
2019-02-25T05:05:46.463Z,101609.31
2019-02-25T05:08:16.729Z,101617.45
2019-02-25T05:10:58.012Z,101605.66
2019-02-25T05:13:32.706Z,101610.39
2019-02-25T05:16:04.064Z,101600.63
2019-02-25T05:18:34.428Z,101600.75
2019-02-25T05:21:04.956Z,101593.73
2019-02-25T05:23:35.396Z,101592.57
2019-02-25T05:26:05.744Z,101603.19
2019-02-25T05:28:36.075Z,101597.16
2019-02-25T05:31:06.404Z,101598.80
2019-02-25T05:33:37.001Z,101594.66
2019-02-25T05:36:10.298Z,101588.42
2019-02-25T05:38:41.046Z,101597.71
2019-02-25T05:41:11.766Z,101597.81
2019-02-25T05:43:42.094Z,101597.69
2019-02-25T05:46:13.143Z,101584.71
2019-02-25T05:48:43.530Z,101589.53
2019-02-25T05:51:13.865Z,101581.93
2019-02-25T05:53:44.288Z,101582.87
2019-02-25T05:56:14.810Z,101579.22
2019-02-25T05:58:44.967Z,101587.06
2019-02-25T06:01:15.324Z,101594.28
2019-02-25T06:03:45.830Z,101592.91
2019-02-25T06:06:16.295Z,101602.09
2019-02-25T06:08:47.771Z,101606.34
2019-02-25T06:11:18.160Z,101607.87
2019-02-25T06:13:48.533Z,101602.19
2019-02-25T06:16:18.835Z,101611.52
2019-02-25T06:18:49.005Z,101602.08
2019-02-25T06:21:19.607Z,101604.22
2019-02-25T06:23:51.613Z,101517.67
2019-02-25T06:26:23.073Z,101606.41
2019-02-25T06:28:53.412Z,101610.38
2019-02-25T06:31:23.853Z,101622.84
2019-02-25T06:33:54.192Z,101617.98
2019-02-25T06:36:25.428Z,101633.31
2019-02-25T06:38:57.698Z,101637.92
2019-02-25T06:41:28.827Z,101629.69
2019-02-25T06:43:59.354Z,101550.72
2019-02-25T06:46:29.767Z,101630.93
2019-02-25T06:49:00.086Z,101627.05
2019-02-25T06:51:30.415Z,101630.56
2019-02-25T06:54:01.048Z,101630.25
2019-02-25T06:56:31.387Z,101635.36
2019-02-25T06:59:01.871Z,101627.63
2019-02-25T07:01:32.693Z,101633.34
2019-02-25T07:04:37.186Z,101635.50
2019-02-25T07:07:20.900Z,101635.17
2019-02-25T07:10:03.946Z,101636.23
2019-02-25T07:13:01.989Z,101642.15
2019-02-25T07:15:42.717Z,101646.98
2019-02-25T07:18:39.439Z,101642.63
2019-02-25T07:21:21.213Z,101645.95
2019-02-25T07:24:10.583Z,101628.38
2019-02-25T07:26:49.701Z,101578.58
2019-02-25T07:29:32.445Z,101555.59
2019-02-25T07:32:21.547Z,101636.06
2019-02-25T07:35:16.611Z,101630.77
2019-02-25T07:38:05.690Z,101631.96
2019-02-25T07:40:53.487Z,101635.38
2019-02-25T07:43:31.715Z,101640.81
2019-02-25T07:46:24.066Z,101643.98
2019-02-25T07:49:15.977Z,101654.14
2019-02-25T07:51:56.092Z,101673.03
2019-02-25T07:54:51.698Z,101665.92
2019-02-25T07:57:32.238Z,101668.77
2019-02-25T08:00:19.911Z,101662.30
2019-02-25T08:03:09.517Z,101510.43
2019-02-25T08:05:55.425Z,101661.92
2019-02-25T08:08:54.003Z,101661.08
2019-02-25T08:11:43.193Z,101657.63
2019-02-25T08:14:32.383Z,101651.94
2019-02-25T08:17:21.868Z,101654.51
2019-02-25T08:20:06.068Z,101647.99
2019-02-25T08:22:59.540Z,101648.19
2019-02-25T08:26:00.302Z,101661.97
2019-02-25T08:28:52.633Z,101664.62
2019-02-25T08:31:31.225Z,101664.48
2019-02-25T08:34:18.743Z,101665.99
2019-02-25T08:37:36.804Z,101660.77
2019-02-25T08:41:04.782Z,101661.50
2019-02-25T08:43:53.501Z,101668.06
2019-02-25T08:46:47.153Z,101671.82
2019-02-25T08:49:30.364Z,101677.23
2019-02-25T08:52:00.993Z,101681.97
2019-02-25T08:54:31.422Z,101684.47
2019-02-25T08:57:03.588Z,101682.73
2019-02-25T08:59:33.957Z,101680.61
2019-02-25T09:02:08.723Z,101678.70
2019-02-25T09:04:39.067Z,101683.38
2019-02-25T09:07:09.479Z,101680.66
2019-02-25T09:09:40.248Z,101676.17
2019-02-25T09:12:13.728Z,101591.17
2019-02-25T09:14:48.391Z,101671.19
2019-02-25T09:17:21.938Z,101674.39
2019-02-25T09:19:53.685Z,101679.79
2019-02-25T09:22:26.124Z,101677.59
2019-02-25T09:25:00.552Z,101680.72
2019-02-25T09:27:30.760Z,101680.23
2019-02-25T09:30:01.164Z,101681.78
2019-02-25T09:32:31.898Z,101687.13
2019-02-25T09:35:03.038Z,101683.87
2019-02-25T09:37:33.779Z,101683.87
2019-02-25T09:40:05.038Z,101679.08
2019-02-25T09:42:35.377Z,101683.14
2019-02-25T09:45:10.758Z,101679.26
2019-02-25T09:47:41.638Z,101677.75
2019-02-25T09:50:17.968Z,101672.80
2019-02-25T09:52:50.431Z,101670.34
2019-02-25T09:55:20.804Z,101665.95
2019-02-25T09:57:51.031Z,101673.44
2019-02-25T10:00:22.803Z,101671.73
2019-02-25T10:02:53.988Z,101671.83
2019-02-25T10:05:24.699Z,101671.64
2019-02-25T10:07:55.432Z,101670.08
2019-02-25T10:10:26.082Z,101670.53
2019-02-25T10:12:56.625Z,101665.36
2019-02-25T10:15:27.359Z,101660.02
2019-02-25T10:18:00.284Z,101652.69
2019-02-25T10:20:31.254Z,101656.63
2019-02-25T10:23:02.072Z,101651.11
2019-02-25T10:25:33.772Z,101657.67
2019-02-25T10:28:04.182Z,101650.16
2019-02-25T10:30:35.358Z,101652.47
2019-02-25T10:33:06.044Z,101652.17
2019-02-25T10:35:36.482Z,101655.94
2019-02-25T10:38:07.562Z,101653.17
2019-02-25T10:40:38.165Z,101654.63
2019-02-25T10:43:08.851Z,101648.25
2019-02-25T10:45:41.563Z,101644.62
2019-02-25T10:48:12.824Z,101573.38
2019-02-25T10:50:43.488Z,101646.91
2019-02-25T10:53:15.587Z,101645.57
2019-02-25T10:55:53.131Z,101641.22
2019-02-25T10:58:25.178Z,101651.38
2019-02-25T11:00:56.014Z,101651.33
2019-02-25T11:03:26.243Z,101651.63
2019-02-25T11:06:00.861Z,101649.10
2019-02-25T11:08:35.279Z,101643.77
2019-02-25T11:11:13.653Z,101646.38
2019-02-25T11:13:44.350Z,101635.76
2019-02-25T11:16:16.461Z,101634.07
2019-02-25T11:18:46.863Z,101628.39
2019-02-25T11:21:18.384Z,101624.80
2019-02-25T11:23:49.546Z,101616.94
2019-02-25T11:26:21.499Z,101614.52
2019-02-25T11:28:52.292Z,101609.62
2019-02-25T11:31:26.815Z,101605.88
2019-02-25T11:34:03.219Z,101538.78
2019-02-25T11:36:34.446Z,101600.30
2019-02-25T11:39:09.488Z,101596.06
2019-02-25T11:41:41.095Z,101594.23
2019-02-25T11:44:12.115Z,101594.12
2019-02-25T11:46:42.725Z,101586.89
2019-02-25T11:49:13.134Z,101576.98
2019-02-25T11:51:43.481Z,101571.67
2019-02-25T11:54:18.347Z,101564.25
2019-02-25T11:56:48.721Z,101560.42
2019-02-25T11:59:20.537Z,101556.56
2019-02-25T12:01:50.870Z,101482.64
2019-02-25T12:04:48.350Z,101539.32
2019-02-25T12:07:19.130Z,101525.61
2019-02-25T12:09:49.418Z,101528.61
2019-02-25T12:12:19.723Z,101517.59
2019-02-25T12:14:50.371Z,101510.03
2019-02-25T12:17:21.801Z,101500.97
2019-02-25T12:19:52.321Z,101500.33
2019-02-25T12:22:23.350Z,101485.18
2019-02-25T12:24:53.742Z,101488.21
2019-02-25T12:27:28.008Z,101480.14
2019-02-25T12:29:58.259Z,101482.53
2019-02-25T12:32:28.703Z,101481.05
2019-02-25T12:35:03.220Z,101473.44
2019-02-25T12:37:33.729Z,101471.05
2019-02-25T12:40:10.375Z,101463.31
2019-02-25T12:42:40.864Z,101378.63
2019-02-25T12:45:11.351Z,101374.66
2019-02-25T12:47:43.054Z,101440.39
2019-02-25T12:50:13.749Z,101371.31
2019-02-25T12:52:44.222Z,101444.23
2019-02-25T12:55:16.288Z,101440.42
2019-02-25T12:57:48.013Z,101433.24
2019-02-25T13:00:19.619Z,101429.17
2019-02-25T13:02:51.761Z,101418.11
2019-02-25T13:05:22.134Z,101414.36
2019-02-25T13:07:52.422Z,101414.06
2019-02-25T13:10:22.959Z,101417.81
2019-02-25T13:12:53.891Z,101420.91
2019-02-25T13:15:24.422Z,101414.97
2019-02-25T13:17:54.766Z,101414.27
2019-02-25T13:20:27.072Z,101412.02
2019-02-25T13:22:57.329Z,101400.63
2019-02-25T13:25:30.526Z,101395.55
2019-02-25T13:30:30.584Z,101400.86
2019-02-25T13:33:00.940Z,101393.61
2019-02-25T13:35:31.675Z,101392.08
2019-02-25T13:38:02.817Z,101376.50
2019-02-25T13:40:33.425Z,101379.83
2019-02-25T13:43:03.850Z,101370.47
2019-02-25T13:45:34.598Z,101370.56
2019-02-25T13:48:05.767Z,101363.04
2019-02-25T13:50:36.416Z,101358.70
2019-02-25T13:53:07.779Z,101360.91
2019-02-25T13:55:38.377Z,101366.11
2019-02-25T13:58:09.019Z,101360.33
2019-02-25T14:00:41.582Z,101357.60
2019-02-25T14:03:12.278Z,101354.12
2019-02-25T14:05:47.973Z,101352.14
2019-02-25T14:08:18.458Z,101280.13
2019-02-25T14:10:49.129Z,101335.20
2019-02-25T14:13:19.777Z,101335.11
2019-02-25T14:15:50.672Z,101331.63
2019-02-25T14:18:21.521Z,101330.09
2019-02-25T14:20:54.837Z,101331.81
2019-02-25T14:23:25.847Z,101333.45
2019-02-25T14:25:57.278Z,101332.42
2019-02-25T14:28:30.146Z,101327.78
2019-02-25T14:31:00.781Z,101334.87
2019-02-25T14:33:35.645Z,101335.75
2019-02-25T14:36:03.976Z,101339.83
2019-02-25T14:38:38.891Z,101341.30
2019-02-25T14:41:11.709Z,101335.18
2019-02-25T14:43:47.099Z,101345.05
2019-02-25T14:46:21.828Z,101337.73
2019-02-25T14:48:53.070Z,101342.75
2019-02-25T14:51:27.766Z,101336.50
2019-02-25T14:53:59.626Z,101332.07
2019-02-25T14:56:30.261Z,101332.63
2019-02-25T14:59:05.554Z,101331.41
2019-02-25T15:01:33.943Z,101333.25
2019-02-25T15:04:06.414Z,101336.37
2019-02-25T15:06:38.469Z,101332.69
2019-02-25T15:09:12.509Z,101327.65
2019-02-25T15:11:43.213Z,101272.58
2019-02-25T15:14:15.005Z,101328.46
2019-02-25T15:16:46.007Z,101330.69
2019-02-25T15:19:16.548Z,101330.73
2019-02-25T15:21:49.886Z,101327.00
2019-02-25T15:24:20.359Z,101261.09
2019-02-25T15:26:50.901Z,101332.42
2019-02-25T15:29:22.910Z,101336.16
2019-02-25T15:31:55.187Z,101337.97
2019-02-25T15:34:27.250Z,101337.23
2019-02-25T15:37:00.544Z,101335.79
2019-02-25T15:39:30.983Z,101337.88
2019-02-25T15:42:05.329Z,101330.78
2019-02-25T15:44:36.982Z,101336.06
2019-02-25T15:47:10.672Z,101337.64
2019-02-25T15:49:43.693Z,101329.81
2019-02-25T15:52:16.968Z,101325.73
2019-02-25T15:54:47.721Z,101325.30
2019-02-25T15:57:22.565Z,101328.56
2019-02-25T15:59:59.005Z,101328.52
2019-02-25T16:02:32.574Z,101321.97
2019-02-25T16:05:11.476Z,101324.64
2019-02-25T16:07:44.959Z,101325.13
2019-02-25T16:10:16.690Z,101324.96
2019-02-25T16:12:48.280Z,101321.48
2019-02-25T16:15:21.037Z,101321.87
2019-02-25T16:17:53.694Z,101323.27
2019-02-25T16:20:25.571Z,101318.52
2019-02-25T16:22:58.376Z,101319.64
2019-02-25T16:25:32.179Z,101323.13
2019-02-25T16:28:08.048Z,101325.56
2019-02-25T16:30:42.453Z,101320.56
2019-02-25T16:33:14.519Z,101325.11
2019-02-25T16:35:47.383Z,101327.41
2019-02-25T16:38:23.042Z,101329.48
2019-02-25T16:40:50.371Z,101332.38
2019-02-25T16:43:21.219Z,101332.11
2019-02-25T16:45:55.007Z,101323.45
2019-02-25T16:48:34.851Z,101333.02
2019-02-25T16:53:38.682Z,101330.12
2019-02-25T16:56:07.877Z,101333.41
2019-02-25T16:58:39.096Z,101331.09
2019-02-25T17:01:12.560Z,101336.84
2019-02-25T17:03:43.815Z,101332.41
2019-02-25T17:06:18.203Z,101330.39
2019-02-25T17:08:48.854Z,101331.13
2019-02-25T17:11:21.889Z,101330.23
2019-02-25T17:13:53.098Z,101331.16
2019-02-25T17:16:24.452Z,101335.86
2019-02-25T17:18:54.952Z,101333.16
2019-02-25T17:21:28.760Z,101332.37
2019-02-25T17:24:00.665Z,101339.36
2019-02-25T17:26:31.627Z,101341.58
2019-02-25T17:29:02.639Z,101342.44
2019-02-25T17:31:34.533Z,101267.88
2019-02-25T17:34:05.985Z,101345.31
2019-02-25T17:36:36.762Z,101349.78
2019-02-25T17:39:09.076Z,101347.70
2019-02-25T17:41:42.522Z,101357.89
2019-02-25T17:44:17.861Z,101358.42
2019-02-25T17:46:49.337Z,101363.86
2019-02-25T17:49:20.053Z,101357.80
2019-02-25T17:51:51.294Z,101358.47
2019-02-25T17:54:26.235Z,101364.72
2019-02-25T17:56:57.439Z,101366.37
2019-02-25T17:59:29.419Z,101363.45
2019-02-25T18:02:01.765Z,101362.47
2019-02-25T18:04:34.714Z,101363.45
2019-02-25T18:07:05.872Z,101367.41
2019-02-25T18:09:38.035Z,101365.92
2019-02-25T18:12:10.744Z,101362.31
2019-02-25T18:14:43.095Z,101358.86
2019-02-25T18:17:17.474Z,101358.69
2019-02-25T18:19:50.154Z,101356.39
2019-02-25T18:22:20.971Z,101361.63
2019-02-25T18:24:51.948Z,101361.78
2019-02-25T18:27:22.502Z,101362.76
2019-02-25T18:29:54.811Z,101283.49
2019-02-25T18:32:30.475Z,101364.69
2019-02-25T18:35:00.740Z,101272.34
2019-02-25T18:37:32.712Z,101358.60
2019-02-25T18:40:03.783Z,101356.81
2019-02-25T18:42:36.475Z,101357.27
2019-02-25T18:45:13.672Z,101355.31
2019-02-25T18:47:46.314Z,101359.58
2019-02-25T18:50:19.931Z,101366.98
2019-02-25T18:52:52.906Z,101359.75
2019-02-25T18:55:26.668Z,101358.11
2019-02-25T18:57:57.546Z,101359.77
2019-02-25T19:00:34.921Z,101360.59
2019-02-25T19:03:06.246Z,101356.98
2019-02-25T19:05:36.794Z,101362.09
2019-02-25T19:08:17.180Z,101360.45
2019-02-25T19:10:50.335Z,101362.25
2019-02-25T19:13:23.354Z,101358.14
2019-02-25T19:15:55.310Z,101354.88
2019-02-25T19:18:29.416Z,101350.81
2019-02-25T19:21:02.488Z,101354.11
2019-02-25T19:23:35.431Z,101360.17
2019-02-25T19:26:10.474Z,101370.02
2019-02-25T19:28:44.076Z,101364.94
2019-02-25T19:31:12.552Z,101366.09
2019-02-25T19:33:44.540Z,101362.80
2019-02-25T19:36:16.712Z,101370.52
2019-02-25T19:38:50.291Z,101365.75
2019-02-25T19:41:22.415Z,101370.17
2019-02-25T19:43:58.859Z,101373.14
2019-02-25T19:46:23.032Z,101371.50
2019-02-25T19:48:54.174Z,101369.53
2019-02-25T19:51:27.443Z,101366.89
2019-02-25T19:53:59.881Z,101378.14
2019-02-25T19:56:31.429Z,101378.30
2019-02-25T19:59:03.743Z,101382.72
2019-02-25T20:01:34.574Z,101374.22
2019-02-25T20:04:07.042Z,101373.70
2019-02-25T20:06:38.235Z,101368.77
2019-02-25T20:09:09.169Z,101371.20
2019-02-25T20:11:42.759Z,101371.54
2019-02-25T20:14:16.593Z,101373.16
2019-02-25T20:16:46.323Z,101367.72
2019-02-25T20:19:17.018Z,101374.08
2019-02-25T20:21:48.261Z,101372.32
2019-02-25T20:24:21.646Z,101365.25
2019-02-25T20:26:57.213Z,101369.52
2019-02-25T20:29:25.290Z,101365.39
2019-02-25T20:32:01.047Z,101366.66
2019-02-25T20:34:34.710Z,101364.66
2019-02-25T20:37:04.646Z,101364.66
2019-02-25T20:39:36.002Z,101370.68
2019-02-25T20:42:08.271Z,101362.95
2019-02-25T20:44:40.260Z,101362.95
2019-02-25T20:47:10.806Z,101364.55
2019-02-25T20:49:41.180Z,101354.98
2019-02-25T20:52:13.393Z,101362.69
2019-02-25T20:54:45.954Z,101358.42
2019-02-25T20:57:18.636Z,101358.42
2019-02-25T20:59:51.082Z,101356.81
2019-02-25T21:02:21.683Z,101289.82
2019-02-25T21:04:53.977Z,101289.82
2019-02-25T21:07:27.446Z,101342.64
2019-02-25T21:10:07.673Z,101334.43
2019-02-25T21:12:39.786Z,101340.77
2019-02-25T21:15:12.295Z,101340.77
2019-02-25T21:17:42.885Z,101338.30
2019-02-25T21:20:14.623Z,101340.22
2019-02-25T21:22:45.179Z,101338.28
2019-02-25T21:25:15.591Z,101335.66
2019-02-25T21:27:46.192Z,101328.91
2019-02-25T21:30:17.207Z,101328.91
2019-02-25T21:32:49.656Z,101326.66
2019-02-25T21:35:23.485Z,101321.94
2019-02-25T21:37:54.594Z,101328.23
2019-02-25T21:40:27.735Z,101329.69
2019-02-25T21:42:57.183Z,101330.03
2019-02-25T21:45:32.101Z,101328.33
2019-02-25T21:48:04.188Z,101339.66
2019-02-25T21:50:35.892Z,101335.83
2019-02-25T21:53:07.505Z,101345.25
2019-02-25T21:55:39.419Z,101345.25
2019-02-25T21:58:09.622Z,101349.77
2019-02-25T22:00:41.622Z,101350.77
2019-02-25T22:03:13.182Z,101348.64
2019-02-25T22:05:44.166Z,101358.03
2019-02-25T22:08:14.848Z,101346.88
2019-02-25T22:10:45.835Z,101346.39
2019-02-25T22:13:18.328Z,101351.08
2019-02-25T22:15:48.835Z,101350.91
2019-02-25T22:18:19.150Z,101346.27
2019-02-25T22:20:51.427Z,101346.21
2019-02-25T22:23:25.830Z,101344.39
2019-02-25T22:25:54.596Z,101339.52
2019-02-25T22:28:25.017Z,101339.52
2019-02-25T22:30:55.738Z,101344.61
2019-02-25T22:33:27.904Z,101340.06
2019-02-25T22:35:58.373Z,101340.34
2019-02-25T22:38:28.747Z,101337.05
2019-02-25T22:41:00.397Z,101337.02
2019-02-25T22:43:31.638Z,101336.39
2019-02-25T22:46:03.050Z,101336.33
2019-02-25T22:48:35.716Z,101328.02
2019-02-25T22:51:07.041Z,101324.07
2019-02-25T22:53:37.841Z,101325.72
2019-02-25T22:56:11.531Z,101324.27
2019-02-25T22:58:42.765Z,101316.55
2019-02-25T23:01:19.502Z,101314.80
2019-02-25T23:03:52.717Z,101318.06
2019-02-25T23:06:23.615Z,101312.81
2019-02-25T23:08:55.649Z,101311.61
2019-02-25T23:11:26.211Z,101314.56
2019-02-25T23:13:56.681Z,101312.05
2019-02-25T23:16:30.142Z,101303.59
2019-02-25T23:19:02.161Z,101302.59
2019-02-25T23:21:36.159Z,101303.17
2019-02-25T23:24:07.725Z,101313.14
2019-02-25T23:26:38.210Z,101306.93
2019-02-25T23:29:08.980Z,101228.99
2019-02-25T23:31:39.275Z,101310.72
2019-02-25T23:34:10.792Z,101311.77
2019-02-25T23:36:44.811Z,101309.16
2019-02-25T23:39:17.144Z,101303.60
2019-02-25T23:41:48.663Z,101300.34
2019-02-25T23:44:21.743Z,101298.55
2019-02-25T23:46:55.384Z,101218.88
2019-02-25T23:49:27.335Z,101303.99
2019-02-25T23:51:56.350Z,101300.09
2019-02-25T23:54:28.034Z,101301.95
2019-02-25T23:57:02.014Z,101298.70
2019-02-25T23:59:32.401Z,101305.91
